CheckWX is a tool to help pilots better visualize weather data.  It is not intended as a substitute for an official pre-flight weather briefing.

14:25:20 UTC

UAOO TAF
Kzyl-Orda Southwest Airport
Kzyl-Orda, Kazakhstan
TAF UAOO 211100Z 2112/2121 VRB01MPS 4000 -SHRA BR BKN020CB OVC100 TEMPO 2112/2116 1200 SHRASN BKN004 TEMPO 2116/2121 0500 +SHSN VV002

Feb-21@
12:00 UTC

Feb-21 @ 12:00 UTC

Feb-21@
21:00 UTC

Feb-21 @ 21:00 UTC

TAF UAOO 211100Z 2112/2121 VRB01MPS 4000 -SHRA BR BKN020CB OVC100
Wind
  • Variable at 2 KTS
Conditions
Light Rain, Mist
Cloud Levels
  • Broken at 2,000' AGL
  • Overcast at 10,000' AGL

Feb-21@
12:00 UTC

Feb-21 @ 12:00 UTC

Feb-21@
16:00 UTC

Feb-21 @ 16:00 UTC

TEMPO 2112/2116 1200 SHRASN BKN004

Temporary

Temporary Changes expected for less than half the time period

Conditions
Rain, Snow
Cloud Levels
  • Broken at 400' AGL

Feb-21@
16:00 UTC

Feb-21 @ 16:00 UTC

Feb-21@
21:00 UTC

Feb-21 @ 21:00 UTC

TEMPO 2116/2121 0500 +SHSN VV002

Temporary

Temporary Changes expected for less than half the time period

Conditions
Heavy Snow
Cloud Levels
  • Vertical visibility at 200' AGL